sensor_id;sensor_type;location;lat;lon;timestamp;temperature;humidity
33825;DHT22;20127;48.962;8.342;2022-09-13T00:01:36;15.40;99.90
33825;DHT22;20127;48.962;8.342;2022-09-13T00:04:38;15.30;99.90
33825;DHT22;20127;48.962;8.342;2022-09-13T00:07:39;15.20;99.90
33825;DHT22;20127;48.962;8.342;2022-09-13T00:10:43;15.20;99.90
33825;DHT22;20127;48.962;8.342;2022-09-13T00:13:45;15.10;99.90
33825;DHT22;20127;48.962;8.342;2022-09-13T00:16:47;15.10;99.90
33825;DHT22;20127;48.962;8.342;2022-09-13T00:19:48;15.00;99.90
33825;DHT22;20127;48.962;8.342;2022-09-13T00:22:50;15.00;99.90
33825;DHT22;20127;48.962;8.342;2022-09-13T00:26:02;15.00;99.90
33825;DHT22;20127;48.962;8.342;2022-09-13T00:29:04;15.00;99.90
33825;DHT22;20127;48.962;8.342;2022-09-13T00:32:06;15.00;99.90
33825;DHT22;20127;48.962;8.342;2022-09-13T00:35:08;15.00;99.90
33825;DHT22;20127;48.962;8.342;2022-09-13T00:38:10;14.90;99.90
33825;DHT22;20127;48.962;8.342;2022-09-13T00:41:14;14.90;99.90
33825;DHT22;20127;48.962;8.342;2022-09-13T00:44:54;14.90;99.90
33825;DHT22;20127;48.962;8.342;2022-09-13T00:48:00;14.90;99.90
33825;DHT22;20127;48.962;8.342;2022-09-13T00:51:05;14.90;99.90
33825;DHT22;20127;48.962;8.342;2022-09-13T00:54:08;14.90;99.90
33825;DHT22;20127;48.962;8.342;2022-09-13T00:57:13;14.80;99.90
33825;DHT22;20127;48.962;8.342;2022-09-13T01:00:17;14.80;99.90
33825;DHT22;20127;48.962;8.342;2022-09-13T01:03:21;14.70;99.90
33825;DHT22;20127;48.962;8.342;2022-09-13T01:06:27;14.70;99.90
33825;DHT22;20127;48.962;8.342;2022-09-13T01:09:31;14.70;99.90
33825;DHT22;20127;48.962;8.342;2022-09-13T01:12:42;14.60;99.90
33825;DHT22;20127;48.962;8.342;2022-09-13T01:15:46;14.60;99.90
33825;DHT22;20127;48.962;8.342;2022-09-13T01:18:47;14.60;99.90
33825;DHT22;20127;48.962;8.342;2022-09-13T01:22:19;14.60;99.90
33825;DHT22;20127;48.962;8.342;2022-09-13T01:25:56;14.50;99.90
33825;DHT22;20127;48.962;8.342;2022-09-13T01:29:27;14.50;99.90
33825;DHT22;20127;48.962;8.342;2022-09-13T01:32:55;14.50;99.90
33825;DHT22;20127;48.962;8.342;2022-09-13T01:36:20;14.40;99.90
33825;DHT22;20127;48.962;8.342;2022-09-13T01:39:47;14.40;99.90
33825;DHT22;20127;48.962;8.342;2022-09-13T01:43:06;14.40;99.90
33825;DHT22;20127;48.962;8.342;2022-09-13T01:46:14;14.40;99.90
33825;DHT22;20127;48.962;8.342;2022-09-13T01:49:22;14.40;99.90
33825;DHT22;20127;48.962;8.342;2022-09-13T01:52:33;14.30;99.90
33825;DHT22;20127;48.962;8.342;2022-09-13T01:55:41;14.30;99.90
33825;DHT22;20127;48.962;8.342;2022-09-13T01:58:46;14.20;99.90
33825;DHT22;20127;48.962;8.342;2022-09-13T02:01:54;14.10;99.90
33825;DHT22;20127;48.962;8.342;2022-09-13T02:04:59;14.10;99.90
33825;DHT22;20127;48.962;8.342;2022-09-13T02:08:05;14.00;99.90
33825;DHT22;20127;48.962;8.342;2022-09-13T02:11:10;14.00;99.90
33825;DHT22;20127;48.962;8.342;2022-09-13T02:14:15;13.90;99.90
33825;DHT22;20127;48.962;8.342;2022-09-13T02:17:20;13.90;99.90
33825;DHT22;20127;48.962;8.342;2022-09-13T02:20:27;13.90;99.90
33825;DHT22;20127;48.962;8.342;2022-09-13T02:23:34;13.90;99.90
33825;DHT22;20127;48.962;8.342;2022-09-13T02:26:39;13.90;99.90
33825;DHT22;20127;48.962;8.342;2022-09-13T02:29:44;14.00;99.90
33825;DHT22;20127;48.962;8.342;2022-09-13T02:32:51;13.90;99.90
33825;DHT22;20127;48.962;8.342;2022-09-13T02:36:00;13.90;99.90
33825;DHT22;20127;48.962;8.342;2022-09-13T02:39:06;13.80;99.90
33825;DHT22;20127;48.962;8.342;2022-09-13T02:42:13;13.80;99.90
33825;DHT22;20127;48.962;8.342;2022-09-13T02:45:20;13.70;99.90
33825;DHT22;20127;48.962;8.342;2022-09-13T02:48:28;13.70;99.90
33825;DHT22;20127;48.962;8.342;2022-09-13T02:51:41;13.70;99.90
33825;DHT22;20127;48.962;8.342;2022-09-13T02:54:49;13.70;99.90
33825;DHT22;20127;48.962;8.342;2022-09-13T02:57:59;13.70;99.90
33825;DHT22;20127;48.962;8.342;2022-09-13T03:01:02;13.70;99.90
33825;DHT22;20127;48.962;8.342;2022-09-13T03:04:04;13.70;99.90
33825;DHT22;20127;48.962;8.342;2022-09-13T03:07:11;13.70;99.90
33825;DHT22;20127;48.962;8.342;2022-09-13T03:10:14;13.70;99.90
33825;DHT22;20127;48.962;8.342;2022-09-13T03:13:33;13.60;99.90
33825;DHT22;20127;48.962;8.342;2022-09-13T03:16:43;13.70;99.90
33825;DHT22;20127;48.962;8.342;2022-09-13T03:20:09;13.60;99.90
33825;DHT22;20127;48.962;8.342;2022-09-13T03:23:22;13.70;99.90
33825;DHT22;20127;48.962;8.342;2022-09-13T03:26:36;13.60;99.90
33825;DHT22;20127;48.962;8.342;2022-09-13T03:29:45;13.70;99.90
33825;DHT22;20127;48.962;8.342;2022-09-13T03:32:56;13.60;99.90
33825;DHT22;20127;48.962;8.342;2022-09-13T03:36:04;13.60;99.90
33825;DHT22;20127;48.962;8.342;2022-09-13T03:39:19;13.50;99.90
33825;DHT22;20127;48.962;8.342;2022-09-13T03:42:27;13.60;99.90
33825;DHT22;20127;48.962;8.342;2022-09-13T03:45:34;13.70;99.90
33825;DHT22;20127;48.962;8.342;2022-09-13T03:48:40;13.70;99.90
33825;DHT22;20127;48.962;8.342;2022-09-13T03:51:44;13.70;99.90
33825;DHT22;20127;48.962;8.342;2022-09-13T03:54:48;13.80;99.90
33825;DHT22;20127;48.962;8.342;2022-09-13T03:57:50;13.80;99.90
33825;DHT22;20127;48.962;8.342;2022-09-13T04:00:52;13.80;99.90
33825;DHT22;20127;48.962;8.342;2022-09-13T04:03:54;13.90;99.90
33825;DHT22;20127;48.962;8.342;2022-09-13T04:06:56;13.90;99.90
33825;DHT22;20127;48.962;8.342;2022-09-13T04:09:59;13.90;99.90
33825;DHT22;20127;48.962;8.342;2022-09-13T04:13:01;14.00;99.90
33825;DHT22;20127;48.962;8.342;2022-09-13T04:16:04;14.00;99.90
33825;DHT22;20127;48.962;8.342;2022-09-13T04:19:06;14.00;99.90
33825;DHT22;20127;48.962;8.342;2022-09-13T04:22:08;14.00;99.90
33825;DHT22;20127;48.962;8.342;2022-09-13T04:25:11;14.00;99.90
33825;DHT22;20127;48.962;8.342;2022-09-13T04:28:12;14.00;99.90
33825;DHT22;20127;48.962;8.342;2022-09-13T04:31:14;14.00;99.90
33825;DHT22;20127;48.962;8.342;2022-09-13T04:34:17;14.10;99.90
33825;DHT22;20127;48.962;8.342;2022-09-13T04:41:17;14.10;99.90
33825;DHT22;20127;48.962;8.342;2022-09-13T04:44:19;14.10;99.90
33825;DHT22;20127;48.962;8.342;2022-09-13T04:47:21;14.20;99.90
33825;DHT22;20127;48.962;8.342;2022-09-13T04:50:24;14.20;99.90
33825;DHT22;20127;48.962;8.342;2022-09-13T04:53:25;14.20;99.90
33825;DHT22;20127;48.962;8.342;2022-09-13T04:56:28;14.20;99.90
33825;DHT22;20127;48.962;8.342;2022-09-13T04:59:30;14.20;99.90
33825;DHT22;20127;48.962;8.342;2022-09-13T05:02:32;14.30;99.90
33825;DHT22;20127;48.962;8.342;2022-09-13T05:05:34;14.30;99.90
33825;DHT22;20127;48.962;8.342;2022-09-13T05:08:36;14.40;99.90
33825;DHT22;20127;48.962;8.342;2022-09-13T05:11:39;14.40;99.90
33825;DHT22;20127;48.962;8.342;2022-09-13T05:14:41;14.30;99.90
33825;DHT22;20127;48.962;8.342;2022-09-13T05:17:43;14.30;99.90
33825;DHT22;20127;48.962;8.342;2022-09-13T05:20:44;14.40;99.90
33825;DHT22;20127;48.962;8.342;2022-09-13T05:23:48;14.40;99.90
33825;DHT22;20127;48.962;8.342;2022-09-13T05:26:51;14.50;99.90
33825;DHT22;20127;48.962;8.342;2022-09-13T05:29:53;14.50;99.90
33825;DHT22;20127;48.962;8.342;2022-09-13T05:32:54;14.60;99.90
33825;DHT22;20127;48.962;8.342;2022-09-13T05:35:57;14.70;99.90
33825;DHT22;20127;48.962;8.342;2022-09-13T05:38:59;14.80;99.90
33825;DHT22;20127;48.962;8.342;2022-09-13T05:42:02;14.90;99.90
33825;DHT22;20127;48.962;8.342;2022-09-13T05:45:05;15.00;99.90
33825;DHT22;20127;48.962;8.342;2022-09-13T05:48:07;15.00;99.90
33825;DHT22;20127;48.962;8.342;2022-09-13T05:51:10;15.20;99.90
33825;DHT22;20127;48.962;8.342;2022-09-13T05:54:13;15.30;99.90
33825;DHT22;20127;48.962;8.342;2022-09-13T05:57:16;15.40;99.90
33825;DHT22;20127;48.962;8.342;2022-09-13T06:00:17;15.50;99.90
33825;DHT22;20127;48.962;8.342;2022-09-13T06:03:19;15.60;99.90
33825;DHT22;20127;48.962;8.342;2022-09-13T06:06:22;15.70;99.90
33825;DHT22;20127;48.962;8.342;2022-09-13T06:09:24;15.80;99.90
33825;DHT22;20127;48.962;8.342;2022-09-13T06:12:27;16.00;99.90
33825;DHT22;20127;48.962;8.342;2022-09-13T06:15:28;16.20;99.90
33825;DHT22;20127;48.962;8.342;2022-09-13T06:18:30;16.50;99.90
33825;DHT22;20127;48.962;8.342;2022-09-13T06:21:33;16.70;99.90
33825;DHT22;20127;48.962;8.342;2022-09-13T06:24:35;17.10;99.90
33825;DHT22;20127;48.962;8.342;2022-09-13T06:27:39;17.40;99.90
33825;DHT22;20127;48.962;8.342;2022-09-13T06:30:41;17.60;99.90
33825;DHT22;20127;48.962;8.342;2022-09-13T06:33:43;17.90;99.90
33825;DHT22;20127;48.962;8.342;2022-09-13T06:36:45;18.30;99.90
33825;DHT22;20127;48.962;8.342;2022-09-13T06:39:47;18.70;99.90
33825;DHT22;20127;48.962;8.342;2022-09-13T06:42:50;19.10;99.90
33825;DHT22;20127;48.962;8.342;2022-09-13T06:45:51;19.50;99.30
33825;DHT22;20127;48.962;8.342;2022-09-13T06:48:54;19.90;98.90
33825;DHT22;20127;48.962;8.342;2022-09-13T06:51:57;20.30;97.90
33825;DHT22;20127;48.962;8.342;2022-09-13T06:54:58;20.60;97.30
33825;DHT22;20127;48.962;8.342;2022-09-13T06:58:01;20.80;96.60
33825;DHT22;20127;48.962;8.342;2022-09-13T07:01:08;21.40;95.70
33825;DHT22;20127;48.962;8.342;2022-09-13T07:04:13;22.00;94.00
33825;DHT22;20127;48.962;8.342;2022-09-13T07:07:15;22.50;92.80
33825;DHT22;20127;48.962;8.342;2022-09-13T07:10:17;22.90;90.80
33825;DHT22;20127;48.962;8.342;2022-09-13T07:13:20;23.00;89.60
33825;DHT22;20127;48.962;8.342;2022-09-13T07:16:24;23.00;89.70
33825;DHT22;20127;48.962;8.342;2022-09-13T07:19:27;23.00;89.20
33825;DHT22;20127;48.962;8.342;2022-09-13T07:22:30;23.10;89.00
33825;DHT22;20127;48.962;8.342;2022-09-13T07:25:32;23.10;89.20
33825;DHT22;20127;48.962;8.342;2022-09-13T07:28:37;23.20;86.70
33825;DHT22;20127;48.962;8.342;2022-09-13T07:31:40;23.20;86.20
33825;DHT22;20127;48.962;8.342;2022-09-13T07:34:42;23.40;85.90
33825;DHT22;20127;48.962;8.342;2022-09-13T07:37:44;23.50;84.70
33825;DHT22;20127;48.962;8.342;2022-09-13T07:40:52;23.70;84.60
33825;DHT22;20127;48.962;8.342;2022-09-13T07:43:56;23.90;84.00
33825;DHT22;20127;48.962;8.342;2022-09-13T07:46:58;23.90;82.80
33825;DHT22;20127;48.962;8.342;2022-09-13T07:49:59;23.90;82.80
33825;DHT22;20127;48.962;8.342;2022-09-13T07:53:01;23.80;82.30
33825;DHT22;20127;48.962;8.342;2022-09-13T07:56:04;23.90;82.10
33825;DHT22;20127;48.962;8.342;2022-09-13T07:59:12;24.10;81.60
33825;DHT22;20127;48.962;8.342;2022-09-13T08:02:14;24.40;80.60
33825;DHT22;20127;48.962;8.342;2022-09-13T08:05:18;24.80;79.40
33825;DHT22;20127;48.962;8.342;2022-09-13T08:08:19;25.30;77.90
33825;DHT22;20127;48.962;8.342;2022-09-13T08:11:23;25.50;76.70
33825;DHT22;20127;48.962;8.342;2022-09-13T08:14:26;25.50;75.00
33825;DHT22;20127;48.962;8.342;2022-09-13T08:17:28;25.30;75.60
33825;DHT22;20127;48.962;8.342;2022-09-13T08:20:30;25.40;76.30
33825;DHT22;20127;48.962;8.342;2022-09-13T08:23:31;25.60;75.60
33825;DHT22;20127;48.962;8.342;2022-09-13T08:26:34;25.80;74.60
33825;DHT22;20127;48.962;8.342;2022-09-13T08:29:38;26.10;73.30
33825;DHT22;20127;48.962;8.342;2022-09-13T08:32:39;26.30;72.50
33825;DHT22;20127;48.962;8.342;2022-09-13T08:35:49;26.70;71.20
33825;DHT22;20127;48.962;8.342;2022-09-13T08:38:52;26.90;70.40
33825;DHT22;20127;48.962;8.342;2022-09-13T08:42:02;27.00;68.50
33825;DHT22;20127;48.962;8.342;2022-09-13T08:45:08;27.00;67.30
33825;DHT22;20127;48.962;8.342;2022-09-13T08:48:12;27.10;67.90
33825;DHT22;20127;48.962;8.342;2022-09-13T08:51:25;27.20;67.40
33825;DHT22;20127;48.962;8.342;2022-09-13T08:54:28;27.30;66.60
33825;DHT22;20127;48.962;8.342;2022-09-13T08:57:34;27.40;66.10
33825;DHT22;20127;48.962;8.342;2022-09-13T09:00:44;27.30;65.90
33825;DHT22;20127;48.962;8.342;2022-09-13T09:03:52;27.30;66.40
33825;DHT22;20127;48.962;8.342;2022-09-13T09:07:02;28.00;65.00
33825;DHT22;20127;48.962;8.342;2022-09-13T09:10:12;29.00;62.70
33825;DHT22;20127;48.962;8.342;2022-09-13T09:13:18;29.40;60.60
33825;DHT22;20127;48.962;8.342;2022-09-13T09:16:33;29.50;59.80
33825;DHT22;20127;48.962;8.342;2022-09-13T09:19:40;29.50;59.40
33825;DHT22;20127;48.962;8.342;2022-09-13T09:22:43;29.50;59.00
33825;DHT22;20127;48.962;8.342;2022-09-13T09:25:46;29.60;58.70
33825;DHT22;20127;48.962;8.342;2022-09-13T09:28:50;29.70;58.10
33825;DHT22;20127;48.962;8.342;2022-09-13T09:32:05;29.90;58.00
33825;DHT22;20127;48.962;8.342;2022-09-13T09:35:15;30.30;57.40
33825;DHT22;20127;48.962;8.342;2022-09-13T09:38:35;30.60;56.50
33825;DHT22;20127;48.962;8.342;2022-09-13T09:41:39;30.70;55.60
33825;DHT22;20127;48.962;8.342;2022-09-13T09:44:43;30.80;55.50
33825;DHT22;20127;48.962;8.342;2022-09-13T09:47:49;30.70;54.70
33825;DHT22;20127;48.962;8.342;2022-09-13T09:50:54;30.70;54.60
33825;DHT22;20127;48.962;8.342;2022-09-13T09:54:01;30.60;54.50
33825;DHT22;20127;48.962;8.342;2022-09-13T09:57:04;30.60;54.30
33825;DHT22;20127;48.962;8.342;2022-09-13T10:00:10;30.60;54.40
33825;DHT22;20127;48.962;8.342;2022-09-13T10:03:17;30.60;54.20
33825;DHT22;20127;48.962;8.342;2022-09-13T10:06:21;30.70;53.50
33825;DHT22;20127;48.962;8.342;2022-09-13T10:09:25;30.70;53.40
33825;DHT22;20127;48.962;8.342;2022-09-13T10:12:29;30.70;53.50
33825;DHT22;20127;48.962;8.342;2022-09-13T10:15:33;30.80;53.50
33825;DHT22;20127;48.962;8.342;2022-09-13T10:18:36;30.70;53.10
33825;DHT22;20127;48.962;8.342;2022-09-13T10:21:38;30.70;52.70
33825;DHT22;20127;48.962;8.342;2022-09-13T10:24:40;30.90;53.10
33825;DHT22;20127;48.962;8.342;2022-09-13T10:27:47;31.20;52.10
33825;DHT22;20127;48.962;8.342;2022-09-13T10:30:53;31.20;52.30
33825;DHT22;20127;48.962;8.342;2022-09-13T10:33:59;31.40;52.30
33825;DHT22;20127;48.962;8.342;2022-09-13T10:37:04;31.40;51.50
33825;DHT22;20127;48.962;8.342;2022-09-13T10:40:11;31.40;51.20
33825;DHT22;20127;48.962;8.342;2022-09-13T10:43:17;31.40;51.00
33825;DHT22;20127;48.962;8.342;2022-09-13T10:46:22;31.30;50.30
33825;DHT22;20127;48.962;8.342;2022-09-13T10:49:43;31.20;49.40
33825;DHT22;20127;48.962;8.342;2022-09-13T10:52:47;30.90;50.90
33825;DHT22;20127;48.962;8.342;2022-09-13T10:55:52;30.60;51.40
33825;DHT22;20127;48.962;8.342;2022-09-13T10:59:14;30.50;52.50
33825;DHT22;20127;48.962;8.342;2022-09-13T11:02:33;30.40;52.20
33825;DHT22;20127;48.962;8.342;2022-09-13T11:05:43;30.40;52.50
33825;DHT22;20127;48.962;8.342;2022-09-13T11:08:55;30.40;52.80
33825;DHT22;20127;48.962;8.342;2022-09-13T11:12:06;30.40;52.30
33825;DHT22;20127;48.962;8.342;2022-09-13T11:15:18;30.20;53.00
33825;DHT22;20127;48.962;8.342;2022-09-13T11:18:42;30.10;53.10
33825;DHT22;20127;48.962;8.342;2022-09-13T11:22:04;30.40;53.60
33825;DHT22;20127;48.962;8.342;2022-09-13T11:25:21;30.90;53.00
33825;DHT22;20127;48.962;8.342;2022-09-13T11:28:33;31.30;52.20
33825;DHT22;20127;48.962;8.342;2022-09-13T11:31:42;31.60;52.40
33825;DHT22;20127;48.962;8.342;2022-09-13T11:34:58;31.80;51.60
33825;DHT22;20127;48.962;8.342;2022-09-13T11:38:16;31.90;50.40
33825;DHT22;20127;48.962;8.342;2022-09-13T11:41:31;31.70;50.30
33825;DHT22;20127;48.962;8.342;2022-09-13T11:45:12;31.60;49.80
33825;DHT22;20127;48.962;8.342;2022-09-13T11:48:43;31.40;49.80
33825;DHT22;20127;48.962;8.342;2022-09-13T11:51:57;31.40;50.10
33825;DHT22;20127;48.962;8.342;2022-09-13T11:55:13;31.40;50.10
33825;DHT22;20127;48.962;8.342;2022-09-13T11:58:20;31.50;50.10
33825;DHT22;20127;48.962;8.342;2022-09-13T12:01:28;31.40;50.20
33825;DHT22;20127;48.962;8.342;2022-09-13T12:04:36;31.60;50.60
33825;DHT22;20127;48.962;8.342;2022-09-13T12:07:43;31.50;49.30
33825;DHT22;20127;48.962;8.342;2022-09-13T12:10:51;31.50;49.80
33825;DHT22;20127;48.962;8.342;2022-09-13T12:13:56;31.80;48.90
33825;DHT22;20127;48.962;8.342;2022-09-13T12:17:02;32.10;48.60
33825;DHT22;20127;48.962;8.342;2022-09-13T12:20:12;32.30;48.00
33825;DHT22;20127;48.962;8.342;2022-09-13T12:23:19;32.50;47.40
33825;DHT22;20127;48.962;8.342;2022-09-13T12:26:29;32.70;46.30
33825;DHT22;20127;48.962;8.342;2022-09-13T12:29:35;33.10;46.20
33825;DHT22;20127;48.962;8.342;2022-09-13T12:32:39;33.50;45.60
33825;DHT22;20127;48.962;8.342;2022-09-13T12:35:50;33.70;43.60
33825;DHT22;20127;48.962;8.342;2022-09-13T12:39:18;33.60;44.40
33825;DHT22;20127;48.962;8.342;2022-09-13T12:42:52;34.20;43.70
33825;DHT22;20127;48.962;8.342;2022-09-13T12:46:22;34.40;43.10
33825;DHT22;20127;48.962;8.342;2022-09-13T12:49:46;34.20;42.60
33825;DHT22;20127;48.962;8.342;2022-09-13T12:53:03;34.00;43.50
33825;DHT22;20127;48.962;8.342;2022-09-13T12:56:23;34.20;43.80
33825;DHT22;20127;48.962;8.342;2022-09-13T13:03:16;34.80;43.30
33825;DHT22;20127;48.962;8.342;2022-09-13T13:06:27;35.00;42.10
33825;DHT22;20127;48.962;8.342;2022-09-13T13:09:38;35.40;41.50
33825;DHT22;20127;48.962;8.342;2022-09-13T13:12:42;35.40;41.70
33825;DHT22;20127;48.962;8.342;2022-09-13T13:16:01;35.70;41.60
33825;DHT22;20127;48.962;8.342;2022-09-13T13:19:04;35.80;40.90
33825;DHT22;20127;48.962;8.342;2022-09-13T13:25:58;35.40;40.00
33825;DHT22;20127;48.962;8.342;2022-09-13T13:29:11;34.80;41.30
33825;DHT22;20127;48.962;8.342;2022-09-13T13:32:15;34.40;42.20
33825;DHT22;20127;48.962;8.342;2022-09-13T13:35:28;34.20;42.70
33825;DHT22;20127;48.962;8.342;2022-09-13T13:38:46;34.20;42.40
33825;DHT22;20127;48.962;8.342;2022-09-13T13:41:52;34.10;43.00
33825;DHT22;20127;48.962;8.342;2022-09-13T13:45:16;34.10;42.50
33825;DHT22;20127;48.962;8.342;2022-09-13T13:48:34;34.00;43.50
33825;DHT22;20127;48.962;8.342;2022-09-13T13:51:36;34.20;42.90
33825;DHT22;20127;48.962;8.342;2022-09-13T13:54:57;34.60;42.50
33825;DHT22;20127;48.962;8.342;2022-09-13T13:58:01;34.90;41.10
33825;DHT22;20127;48.962;8.342;2022-09-13T14:01:04;34.60;42.30
33825;DHT22;20127;48.962;8.342;2022-09-13T14:04:37;34.20;41.60
33825;DHT22;20127;48.962;8.342;2022-09-13T14:08:21;33.80;42.10
33825;DHT22;20127;48.962;8.342;2022-09-13T14:11:38;33.50;43.10
33825;DHT22;20127;48.962;8.342;2022-09-13T14:14:53;33.10;43.20
33825;DHT22;20127;48.962;8.342;2022-09-13T14:18:24;32.70;44.30
33825;DHT22;20127;48.962;8.342;2022-09-13T14:21:31;32.60;44.90
33825;DHT22;20127;48.962;8.342;2022-09-13T14:24:37;32.30;44.90
33825;DHT22;20127;48.962;8.342;2022-09-13T14:27:42;32.00;45.20
33825;DHT22;20127;48.962;8.342;2022-09-13T14:30:45;31.70;45.80
33825;DHT22;20127;48.962;8.342;2022-09-13T14:33:47;31.50;46.40
33825;DHT22;20127;48.962;8.342;2022-09-13T14:36:55;31.30;47.00
33825;DHT22;20127;48.962;8.342;2022-09-13T14:40:00;31.20;47.10
33825;DHT22;20127;48.962;8.342;2022-09-13T14:43:13;31.20;47.70
33825;DHT22;20127;48.962;8.342;2022-09-13T14:46:19;30.90;47.90
33825;DHT22;20127;48.962;8.342;2022-09-13T14:49:25;30.60;49.00
33825;DHT22;20127;48.962;8.342;2022-09-13T14:52:32;30.40;49.50
33825;DHT22;20127;48.962;8.342;2022-09-13T14:55:37;30.30;50.10
33825;DHT22;20127;48.962;8.342;2022-09-13T14:58:43;30.20;50.40
33825;DHT22;20127;48.962;8.342;2022-09-13T15:01:46;30.10;50.70
33825;DHT22;20127;48.962;8.342;2022-09-13T15:04:50;30.00;51.10
33825;DHT22;20127;48.962;8.342;2022-09-13T15:07:53;29.90;51.80
33825;DHT22;20127;48.962;8.342;2022-09-13T15:10:56;29.80;52.10
33825;DHT22;20127;48.962;8.342;2022-09-13T15:14:23;29.70;52.50
33825;DHT22;20127;48.962;8.342;2022-09-13T15:17:25;29.60;52.70
33825;DHT22;20127;48.962;8.342;2022-09-13T15:20:28;29.40;53.10
33825;DHT22;20127;48.962;8.342;2022-09-13T15:23:34;29.30;53.60
33825;DHT22;20127;48.962;8.342;2022-09-13T15:26:36;29.10;53.90
33825;DHT22;20127;48.962;8.342;2022-09-13T15:29:38;29.00;54.40
33825;DHT22;20127;48.962;8.342;2022-09-13T15:32:41;29.00;55.00
33825;DHT22;20127;48.962;8.342;2022-09-13T15:35:45;29.00;55.20
33825;DHT22;20127;48.962;8.342;2022-09-13T15:39:03;29.00;55.50
33825;DHT22;20127;48.962;8.342;2022-09-13T15:42:16;28.80;55.40
33825;DHT22;20127;48.962;8.342;2022-09-13T15:45:19;28.80;55.60
33825;DHT22;20127;48.962;8.342;2022-09-13T15:48:24;28.70;55.80
33825;DHT22;20127;48.962;8.342;2022-09-13T15:51:27;28.70;56.50
33825;DHT22;20127;48.962;8.342;2022-09-13T15:54:33;28.80;56.30
33825;DHT22;20127;48.962;8.342;2022-09-13T15:57:36;28.90;56.00
33825;DHT22;20127;48.962;8.342;2022-09-13T16:00:37;28.90;55.90
33825;DHT22;20127;48.962;8.342;2022-09-13T16:03:39;28.80;56.20
33825;DHT22;20127;48.962;8.342;2022-09-13T16:06:41;28.80;56.40
33825;DHT22;20127;48.962;8.342;2022-09-13T16:09:45;28.80;56.80
33825;DHT22;20127;48.962;8.342;2022-09-13T16:12:47;28.80;56.90
33825;DHT22;20127;48.962;8.342;2022-09-13T16:15:49;28.70;57.10
33825;DHT22;20127;48.962;8.342;2022-09-13T16:18:50;28.80;57.30
33825;DHT22;20127;48.962;8.342;2022-09-13T16:21:52;28.80;58.30
33825;DHT22;20127;48.962;8.342;2022-09-13T16:24:55;28.80;57.60
33825;DHT22;20127;48.962;8.342;2022-09-13T16:27:57;28.80;57.20
33825;DHT22;20127;48.962;8.342;2022-09-13T16:30:59;28.60;57.30
33825;DHT22;20127;48.962;8.342;2022-09-13T16:34:00;28.40;57.90
33825;DHT22;20127;48.962;8.342;2022-09-13T16:37:02;28.40;57.80
33825;DHT22;20127;48.962;8.342;2022-09-13T16:40:07;28.30;57.70
33825;DHT22;20127;48.962;8.342;2022-09-13T16:43:09;28.10;57.90
33825;DHT22;20127;48.962;8.342;2022-09-13T16:46:12;28.10;58.00
33825;DHT22;20127;48.962;8.342;2022-09-13T16:49:14;28.00;58.00
33825;DHT22;20127;48.962;8.342;2022-09-13T16:52:16;27.90;58.20
33825;DHT22;20127;48.962;8.342;2022-09-13T16:55:19;27.90;58.40
33825;DHT22;20127;48.962;8.342;2022-09-13T16:58:21;27.80;58.60
33825;DHT22;20127;48.962;8.342;2022-09-13T17:01:24;27.60;58.90
33825;DHT22;20127;48.962;8.342;2022-09-13T17:04:26;27.50;59.50
33825;DHT22;20127;48.962;8.342;2022-09-13T17:07:28;27.40;59.80
33825;DHT22;20127;48.962;8.342;2022-09-13T17:10:31;27.40;59.90
33825;DHT22;20127;48.962;8.342;2022-09-13T17:13:32;27.30;60.30
33825;DHT22;20127;48.962;8.342;2022-09-13T17:16:36;27.10;60.50
33825;DHT22;20127;48.962;8.342;2022-09-13T17:19:38;27.00;60.70
33825;DHT22;20127;48.962;8.342;2022-09-13T17:22:40;26.90;61.20
33825;DHT22;20127;48.962;8.342;2022-09-13T17:25:46;26.80;61.50
33825;DHT22;20127;48.962;8.342;2022-09-13T17:28:48;26.70;61.70
33825;DHT22;20127;48.962;8.342;2022-09-13T17:31:52;26.60;62.00
33825;DHT22;20127;48.962;8.342;2022-09-13T17:34:53;26.60;62.30
33825;DHT22;20127;48.962;8.342;2022-09-13T17:37:55;26.50;62.90
33825;DHT22;20127;48.962;8.342;2022-09-13T17:41:04;26.40;63.20
33825;DHT22;20127;48.962;8.342;2022-09-13T17:44:06;26.30;64.00
33825;DHT22;20127;48.962;8.342;2022-09-13T17:47:08;26.20;64.80
33825;DHT22;20127;48.962;8.342;2022-09-13T17:50:09;26.00;65.60
33825;DHT22;20127;48.962;8.342;2022-09-13T17:53:11;25.80;66.30
33825;DHT22;20127;48.962;8.342;2022-09-13T17:56:17;25.60;67.00
33825;DHT22;20127;48.962;8.342;2022-09-13T17:59:20;25.50;67.70
33825;DHT22;20127;48.962;8.342;2022-09-13T18:02:22;25.40;68.40
33825;DHT22;20127;48.962;8.342;2022-09-13T18:05:25;25.20;68.90
33825;DHT22;20127;48.962;8.342;2022-09-13T18:08:28;25.10;69.50
33825;DHT22;20127;48.962;8.342;2022-09-13T18:11:32;25.00;70.10
33825;DHT22;20127;48.962;8.342;2022-09-13T18:14:33;25.00;70.50
33825;DHT22;20127;48.962;8.342;2022-09-13T18:17:35;24.90;71.00
33825;DHT22;20127;48.962;8.342;2022-09-13T18:20:37;24.80;71.50
33825;DHT22;20127;48.962;8.342;2022-09-13T18:23:39;24.70;72.20
33825;DHT22;20127;48.962;8.342;2022-09-13T18:26:42;24.60;72.70
33825;DHT22;20127;48.962;8.342;2022-09-13T18:29:43;24.50;73.40
33825;DHT22;20127;48.962;8.342;2022-09-13T18:32:46;24.40;73.80
33825;DHT22;20127;48.962;8.342;2022-09-13T18:35:55;24.30;74.20
33825;DHT22;20127;48.962;8.342;2022-09-13T18:38:58;24.30;74.60
33825;DHT22;20127;48.962;8.342;2022-09-13T18:42:04;24.30;74.70
33825;DHT22;20127;48.962;8.342;2022-09-13T18:45:08;24.30;75.00
33825;DHT22;20127;48.962;8.342;2022-09-13T18:48:09;24.20;75.30
33825;DHT22;20127;48.962;8.342;2022-09-13T18:51:12;24.10;75.60
33825;DHT22;20127;48.962;8.342;2022-09-13T18:54:16;24.00;76.20
33825;DHT22;20127;48.962;8.342;2022-09-13T18:57:19;23.90;76.60
33825;DHT22;20127;48.962;8.342;2022-09-13T19:00:22;23.90;77.00
33825;DHT22;20127;48.962;8.342;2022-09-13T19:03:24;23.80;77.50
33825;DHT22;20127;48.962;8.342;2022-09-13T19:06:28;23.80;77.40
33825;DHT22;20127;48.962;8.342;2022-09-13T19:09:29;23.80;77.60
33825;DHT22;20127;48.962;8.342;2022-09-13T19:12:32;23.70;77.70
33825;DHT22;20127;48.962;8.342;2022-09-13T19:15:34;23.70;77.80
33825;DHT22;20127;48.962;8.342;2022-09-13T19:18:37;23.70;77.80
33825;DHT22;20127;48.962;8.342;2022-09-13T19:21:40;23.70;77.90
33825;DHT22;20127;48.962;8.342;2022-09-13T19:24:42;23.70;77.80
33825;DHT22;20127;48.962;8.342;2022-09-13T19:27:45;23.80;77.60
33825;DHT22;20127;48.962;8.342;2022-09-13T19:30:47;23.80;77.60
33825;DHT22;20127;48.962;8.342;2022-09-13T19:33:50;23.90;77.50
33825;DHT22;20127;48.962;8.342;2022-09-13T19:36:52;23.90;77.40
33825;DHT22;20127;48.962;8.342;2022-09-13T19:39:57;24.00;77.50
33825;DHT22;20127;48.962;8.342;2022-09-13T19:43:01;23.90;77.60
33825;DHT22;20127;48.962;8.342;2022-09-13T19:46:04;23.90;77.80
33825;DHT22;20127;48.962;8.342;2022-09-13T19:49:07;23.80;77.90